Time;durP1;ratioP1;P1;durP2;ratioP2;P2;SDS_P1;SDS_P2;PMS_P1;PMS_P2;Temp;Humidity;BMP_temperature;BMP_pressure;BME280_temperature;BME280_humidity;BME280_pressure;Samples;Min_cycle;Max_cycle;Signal;HPM_P1;HPM_P2
2021/12/04 00:00:52;;;;;;;12.80;11.50;;;;;;;5.32;76.82;98320.34;5050920;28;20049;-62
2021/12/04 00:03:23;;;;;;;13.27;10.63;;;;;;;5.31;76.99;98310.84;5049865;28;20064;-61
2021/12/04 00:05:54;;;;;;;14.23;10.55;;;;;;;5.30;76.80;98309.16;5051025;28;20560;-61
2021/12/04 00:08:25;;;;;;;11.50;10.20;;;;;;;5.28;76.91;98311.88;5051085;28;20122;-62
2021/12/04 00:10:52;;;;;;;12.10;10.88;;;;;;;5.28;77.21;98308.41;5033690;28;20482;-61
2021/12/04 00:13:20;;;;;;;12.32;11.02;;;;;;;5.28;77.21;98301.44;5048876;28;20063;-62
2021/12/04 00:15:47;;;;;;;12.40;11.10;;;;;;;5.29;76.97;98299.66;5050002;28;20057;-60
2021/12/04 00:18:13;;;;;;;12.57;11.10;;;;;;;5.29;77.37;98295.28;5050394;28;20059;-61
2021/12/04 00:20:41;;;;;;;13.05;11.68;;;;;;;5.27;76.96;98294.50;5049324;28;20048;-61
2021/12/04 00:23:09;;;;;;;12.68;11.35;;;;;;;5.27;77.03;98291.09;5050632;28;20053;-61
2021/12/04 00:25:37;;;;;;;13.50;12.10;;;;;;;5.26;77.18;98290.22;5050411;28;20049;-63
2021/12/04 00:28:05;;;;;;;12.88;11.40;;;;;;;5.25;76.85;98280.72;5049349;28;20051;-62
2021/12/04 00:30:32;;;;;;;17.48;11.52;;;;;;;5.25;77.21;98285.94;5050954;28;20111;-60
2021/12/04 00:33:02;;;;;;;14.00;12.50;;;;;;;5.25;77.13;98285.94;5050756;28;20095;-60
2021/12/04 00:43:18;;;;;;;13.95;12.48;;;;;;;5.24;77.15;98273.00;5050412;28;20095;-61
2021/12/04 00:51:40;;;;;;;13.32;11.27;;;;;;;5.21;77.29;98266.19;5054664;28;20045;-61
2021/12/04 00:54:10;;;;;;;13.15;11.85;;;;;;;5.22;77.22;98273.06;5053318;28;20684;-61
2021/12/04 00:56:38;;;;;;;12.48;11.18;;;;;;;5.21;77.24;98261.78;5053181;28;20053;-62
2021/12/04 00:59:05;;;;;;;12.38;10.88;;;;;;;5.21;77.12;98253.97;5053222;28;20049;-61
2021/12/04 01:01:33;;;;;;;12.93;11.63;;;;;;;5.22;77.49;98254.81;5054551;28;20148;-62
2021/12/04 01:04:00;;;;;;;13.00;11.70;;;;;;;5.21;77.23;98250.53;5052894;28;20448;-61
2021/12/04 01:06:27;;;;;;;13.07;11.30;;;;;;;5.21;77.23;98242.72;5053032;28;20063;-62
2021/12/04 01:08:53;;;;;;;12.18;10.88;;;;;;;5.22;77.37;98237.41;5052928;28;20061;-62
2021/12/04 01:11:20;;;;;;;13.30;11.35;;;;;;;5.21;77.32;98240.09;5053774;28;20056;-60
2021/12/04 01:13:47;;;;;;;14.23;12.77;;;;;;;5.18;77.21;98232.44;5054048;28;20056;-61
2021/12/04 01:16:14;;;;;;;13.10;11.63;;;;;;;5.20;77.25;98236.63;5053144;28;20041;-62
2021/12/04 01:18:43;;;;;;;13.25;11.65;;;;;;;5.20;77.24;98248.88;5054079;28;20059;-62
2021/12/04 01:21:11;;;;;;;21.35;13.30;;;;;;;5.20;77.07;98243.66;5053768;28;20055;-61
2021/12/04 01:23:37;;;;;;;14.93;13.18;;;;;;;5.20;77.38;98246.25;5054031;28;20049;-61
2021/12/04 01:26:04;;;;;;;16.40;12.68;;;;;;;5.19;77.30;98229.75;5053706;28;20048;-62
2021/12/04 01:28:31;;;;;;;14.95;13.02;;;;;;;5.21;77.34;98238.31;5052826;28;20061;-61
2021/12/04 01:30:58;;;;;;;17.55;14.20;;;;;;;5.21;77.10;98238.31;5052138;28;20053;-61
2021/12/04 01:33:25;;;;;;;15.65;13.30;;;;;;;5.21;77.49;98242.72;5053717;28;20053;-63
2021/12/04 01:35:52;;;;;;;15.77;13.52;;;;;;;5.21;77.32;98238.31;5052181;28;20049;-61
2021/12/04 01:38:19;;;;;;;16.02;14.25;;;;;;;5.21;77.32;98234.88;5053315;28;20049;-62
2021/12/04 01:40:46;;;;;;;16.20;13.30;;;;;;;5.22;77.26;98233.94;5053078;28;20060;-60
2021/12/04 01:43:13;;;;;;;15.80;13.88;;;;;;;5.22;77.16;98223.50;5053557;28;20057;-63
2021/12/04 01:45:40;;;;;;;15.95;13.70;;;;;;;5.22;77.47;98226.13;5053625;28;20049;-62
2021/12/04 01:48:06;;;;;;;17.75;14.30;;;;;;;5.23;77.21;98217.34;5052199;28;20485;-61
2021/12/04 01:50:34;;;;;;;18.42;14.40;;;;;;;5.22;77.34;98215.69;5053151;28;20071;-61
2021/12/04 01:53:02;;;;;;;19.52;15.18;;;;;;;5.21;77.36;98217.44;5052276;28;20053;-62
2021/12/04 01:55:32;;;;;;;16.33;14.35;;;;;;;5.23;77.36;98214.75;5051858;28;20063;-60
2021/12/04 01:58:03;;;;;;;18.35;14.07;;;;;;;5.25;77.42;98215.50;5052080;28;20053;-61
2021/12/04 02:00:37;;;;;;;18.60;15.23;;;;;;;5.24;77.33;98216.44;5051584;28;20122;-61
2021/12/04 02:03:07;;;;;;;21.08;14.55;;;;;;;5.28;77.48;98230.13;5053108;28;20048;-61
2021/12/04 02:05:38;;;;;;;16.30;13.40;;;;;;;5.28;77.27;98228.38;5051725;28;20059;-61
2021/12/04 02:08:06;;;;;;;20.15;14.40;;;;;;;5.31;77.51;98232.56;5053009;28;20048;-61
2021/12/04 02:10:34;;;;;;;23.73;15.93;;;;;;;5.30;77.33;98231.72;5051780;28;20068;-61
2021/12/04 02:13:01;;;;;;;15.55;13.70;;;;;;;5.33;77.45;98236.75;5051907;28;20051;-60
2021/12/04 02:15:28;;;;;;;16.23;13.93;;;;;;;5.34;77.27;98227.16;5051936;28;20045;-61
2021/12/04 02:17:55;;;;;;;17.52;13.95;;;;;;;5.35;77.58;98234.06;5052881;28;20076;-61
2021/12/04 02:20:24;;;;;;;16.70;13.65;;;;;;;5.36;77.24;98225.31;5051639;28;20061;-61
2021/12/04 02:22:51;;;;;;;15.77;13.30;;;;;;;5.37;77.15;98226.13;5053007;28;20052;-62
2021/12/04 02:25:18;;;;;;;18.10;14.13;;;;;;;5.38;77.27;98220.81;5051476;28;20527;-61
2021/12/04 02:27:46;;;;;;;14.75;12.38;;;;;;;5.39;77.17;98219.91;5052508;28;20053;-62
2021/12/04 02:30:17;;;;;;;18.60;13.50;;;;;;;5.38;77.00;98207.78;5051394;28;20049;-62
2021/12/04 02:32:44;;;;;;;14.10;12.60;;;;;;;5.38;77.00;98194.72;5052527;28;20052;-61
2021/12/04 02:35:12;;;;;;;14.80;12.35;;;;;;;5.38;76.86;98180.84;5051212;28;20056;-62
2021/12/04 02:37:39;;;;;;;17.77;14.15;;;;;;;5.37;76.94;98171.31;5051301;28;20052;-62
2021/12/04 02:40:10;;;;;;;15.23;13.20;;;;;;;5.35;76.90;98168.84;5051030;28;20057;-62
2021/12/04 02:42:37;;;;;;;18.67;14.02;;;;;;;5.33;76.95;98158.50;5051427;28;20056;-63
2021/12/04 02:45:08;;;;;;;14.55;11.95;;;;;;;5.32;76.87;98156.81;5052498;28;20049;-61
2021/12/04 02:47:35;;;;;;;20.42;14.10;;;;;;;5.32;76.91;98155.97;5051313;28;20408;-63
2021/12/04 02:50:06;;;;;;;13.90;12.25;;;;;;;5.31;77.01;98149.09;5052122;28;20060;-61
2021/12/04 02:52:37;;;;;;;13.85;12.25;;;;;;;5.30;76.94;98153.44;5052422;28;20087;-61
2021/12/04 02:55:06;;;;;;;18.85;11.98;;;;;;;5.30;76.89;98153.44;5051269;28;20049;-62
2021/12/04 02:57:35;;;;;;;19.23;12.40;;;;;;;5.29;76.88;98143.94;5050718;28;20410;-61
2021/12/04 03:00:04;;;;;;;12.73;10.73;;;;;;;5.28;76.89;98134.47;5050774;28;20053;-61
2021/12/04 03:02:31;;;;;;;14.48;12.27;;;;;;;5.27;76.90;98135.38;5050503;28;20391;-63
2021/12/04 03:05:02;;;;;;;13.38;11.45;;;;;;;5.27;76.80;98130.16;5052390;28;20057;-61
2021/12/04 03:07:29;;;;;;;11.45;10.20;;;;;;;5.25;77.12;98137.25;5052245;28;20048;-61
2021/12/04 03:09:55;;;;;;;13.27;10.23;;;;;;;5.25;77.04;98137.25;5050370;28;20057;-63
2021/12/04 03:12:23;;;;;;;13.77;11.60;;;;;;;5.24;77.06;98132.97;5049931;28;20061;-62
2021/12/04 03:14:54;;;;;;;14.05;10.55;;;;;;;5.23;76.95;98136.47;5050855;28;20092;-61
2021/12/04 03:17:22;;;;;;;13.63;11.27;;;;;;;5.24;77.20;98122.53;5051810;28;20432;-62
2021/12/04 03:19:51;;;;;;;12.90;11.05;;;;;;;5.26;77.27;98123.25;5050223;28;20064;-61
2021/12/04 03:22:19;;;;;;;15.60;11.00;;;;;;;5.28;77.31;98117.97;5051428;28;20045;-63
2021/12/04 03:24:46;;;;;;;12.05;10.15;;;;;;;5.31;77.29;98107.34;5051552;28;20464;-61
2021/12/04 03:27:16;;;;;;;13.70;10.50;;;;;;;5.31;77.29;98102.94;5050152;28;20052;-61
2021/12/04 03:29:54;;;;;;;12.70;11.18;;;;;;;5.33;77.00;98114.13;5049846;28;20060;-61
2021/12/04 03:32:49;;;;;;;13.90;10.57;;;;;;;5.35;77.22;98108.81;5051387;28;20272;-61
2021/12/04 03:35:18;;;;;;;12.25;10.27;;;;;;;5.37;77.19;98108.69;5051428;28;20451;-61
2021/12/04 03:43:11;;;;;;;11.85;10.13;;;;;;;5.37;76.92;98104.34;5051306;28;20048;-62
2021/12/04 03:45:40;;;;;;;12.05;10.13;;;;;;;5.38;76.90;98102.56;5051281;28;20623;-62
2021/12/04 03:48:17;;;;;;;16.10;10.98;;;;;;;5.38;76.87;98102.56;5051162;28;20053;-61
2021/12/04 03:50:44;;;;;;;15.25;11.05;;;;;;;5.38;77.11;98106.00;5051101;28;20056;-62
2021/12/04 03:53:13;;;;;;;11.60;9.68;;;;;;;5.38;77.12;98103.41;5051019;28;20052;-61
2021/12/04 03:55:40;;;;;;;12.10;10.77;;;;;;;5.40;76.99;98100.69;5050948;28;20097;-63
2021/12/04 03:58:07;;;;;;;12.93;10.45;;;;;;;5.40;76.98;98105.91;5049500;28;20049;-62
2021/12/04 04:00:34;;;;;;;14.98;11.77;;;;;;;5.40;77.04;98105.91;5050896;28;20060;-61
2021/12/04 04:03:00;;;;;;;13.88;11.43;;;;;;;5.40;76.98;98101.53;5050699;28;20053;-62
2021/12/04 04:05:27;;;;;;;13.82;11.60;;;;;;;5.41;76.59;98094.53;5050923;28;20052;-62
2021/12/04 04:07:55;;;;;;;15.13;12.43;;;;;;;5.43;76.93;98084.84;5050615;28;20056;-62
2021/12/04 04:10:21;;;;;;;15.40;12.63;;;;;;;5.43;76.91;98079.63;5050628;28;20056;-62
2021/12/04 04:12:48;;;;;;;15.75;13.23;;;;;;;5.44;76.96;98076.09;5050734;28;20574;-62
2021/12/04 04:15:16;;;;;;;19.63;14.88;;;;;;;5.43;76.83;98077.88;5050526;28;20050;-62
2021/12/04 04:17:43;;;;;;;23.30;15.43;;;;;;;5.44;77.16;98074.31;5049266;28;20056;-63
2021/12/04 04:20:13;;;;;;;19.88;15.50;;;;;;;5.43;76.72;98071.81;5050578;28;20056;-61
2021/12/04 04:22:41;;;;;;;19.73;15.48;;;;;;;5.45;76.69;98067.31;5050419;28;20048;-61
2021/12/04 04:25:09;;;;;;;27.73;15.93;;;;;;;5.44;76.92;98066.50;5048581;28;20124;-62
2021/12/04 04:27:37;;;;;;;35.88;16.08;;;;;;;5.44;76.68;98076.09;5050381;28;20421;-61
2021/12/04 04:30:07;;;;;;;34.72;15.50;;;;;;;5.43;76.49;98077.03;5050267;28;20048;-61
2021/12/04 04:32:34;;;;;;;29.92;16.77;;;;;;;5.43;76.56;98074.41;5049357;28;20045;-62
2021/12/04 04:35:08;;;;;;;26.02;14.20;;;;;;;5.41;76.59;98071.91;5050571;28;20153;-61
2021/12/04 04:38:01;;;;;;;30.02;13.18;;;;;;;5.39;76.68;98068.56;5050627;28;20057;-62
2021/12/04 05:13:06;;;;;;;17.38;14.05;;;;;;;5.41;76.90;98063.22;5050312;28;20053;-63
2021/12/04 05:18:16;;;;;;;21.45;13.48;;;;;;;5.42;76.97;98063.13;5050507;28;20057;-62
2021/12/04 05:20:49;;;;;;;19.77;13.50;;;;;;;5.42;76.91;98055.28;5049756;28;20064;-62
2021/12/04 05:23:16;;;;;;;18.33;14.25;;;;;;;5.43;76.91;98050.94;5050133;28;20060;-61
2021/12/04 05:25:42;;;;;;;18.08;13.73;;;;;;;5.44;77.05;98045.63;5048686;28;20053;-62
2021/12/04 05:28:09;;;;;;;18.77;13.95;;;;;;;5.45;77.26;98039.47;5050179;28;20053;-62
2021/12/04 05:30:36;;;;;;;20.23;15.43;;;;;;;5.46;77.16;98048.13;5049481;28;20060;-63
2021/12/04 05:33:04;;;;;;;19.30;14.48;;;;;;;5.48;76.97;98041.03;5050032;28;20053;-61
2021/12/04 05:35:31;;;;;;;24.00;13.90;;;;;;;5.50;76.96;98041.78;5051606;28;20552;-61
2021/12/04 05:37:57;;;;;;;19.17;14.13;;;;;;;5.51;77.05;98038.22;5053468;28;20500;-61
2021/12/04 05:40:24;;;;;;;16.75;12.25;;;;;;;5.53;76.89;98038.97;5053082;28;20060;-62
2021/12/04 05:42:58;;;;;;;18.98;14.18;;;;;;;5.53;76.66;98044.19;5053918;28;20060;-61
2021/12/04 05:45:26;;;;;;;19.77;14.98;;;;;;;5.53;76.80;98049.41;5053668;28;20045;-62
2021/12/04 05:55:19;;;;;;;18.52;13.93;;;;;;;5.45;76.61;98034.22;5053150;28;20512;-61
2021/12/04 05:57:46;;;;;;;25.70;15.90;;;;;;;5.45;76.54;98030.78;5053394;28;20382;-61
2021/12/04 06:00:20;;;;;;;23.10;13.57;;;;;;;5.43;76.51;98036.13;5052775;28;20119;-63
2021/12/04 06:02:47;;;;;;;21.77;14.13;;;;;;;5.44;76.99;98029.09;5051880;28;20122;-62
2021/12/04 06:05:15;;;;;;;19.40;14.57;;;;;;;5.45;76.95;98030.78;5052955;28;20484;-62
2021/12/04 06:07:41;;;;;;;26.80;16.33;;;;;;;5.44;76.82;98029.09;5053211;28;20049;-61
2021/12/04 06:10:09;;;;;;;26.02;15.45;;;;;;;5.45;77.13;98030.78;5053095;28;20045;-61
2021/12/04 06:12:35;;;;;;;25.23;15.13;;;;;;;5.44;77.12;98024.75;5051472;28;20049;-61
2021/12/04 06:15:04;;;;;;;20.85;15.27;;;;;;;5.45;77.13;98026.41;5053020;28;20053;-61
2021/12/04 06:17:31;;;;;;;20.27;14.60;;;;;;;5.47;77.01;98026.31;5051600;28;20449;-62
2021/12/04 06:22:43;;;;;;;23.60;16.38;;;;;;;5.49;76.87;98027.03;5052930;28;20063;-63
2021/12/04 06:25:25;;;;;;;23.48;15.65;;;;;;;5.48;76.94;98022.75;5052513;28;20440;-62
2021/12/04 06:27:52;;;;;;;27.15;14.82;;;;;;;5.51;77.25;98019.97;5051650;28;20053;-61
2021/12/04 06:30:20;;;;;;;21.92;14.93;;;;;;;5.51;76.94;98022.56;5052339;28;20045;-61
2021/12/04 06:32:49;;;;;;;22.25;14.30;;;;;;;5.54;77.28;98024.16;5052687;28;20056;-61
2021/12/04 06:35:18;;;;;;;22.33;15.10;;;;;;;5.54;76.90;98018.94;5052858;28;20060;-62
2021/12/04 06:37:45;;;;;;;23.00;15.55;;;;;;;5.57;77.11;98024.78;5051051;28;20057;-61
2021/12/04 06:40:12;;;;;;;22.08;15.13;;;;;;;5.57;76.91;98016.13;5052334;28;20080;-62
2021/12/04 06:42:40;;;;;;;19.33;14.95;;;;;;;5.59;76.97;98024.69;5050969;28;20485;-60
2021/12/04 06:45:09;;;;;;;20.20;14.48;;;;;;;5.57;76.77;98019.56;5051868;28;20080;-61
2021/12/04 06:47:37;;;;;;;18.67;14.40;;;;;;;5.58;76.97;98021.22;5049940;28;20049;-61
2021/12/04 06:50:12;;;;;;;16.27;12.18;;;;;;;5.60;77.05;98023.75;5052066;28;20076;-61
2021/12/04 06:52:43;;;;;;;16.05;11.75;;;;;;;5.59;76.89;98025.53;5050962;28;20408;-62
2021/12/04 06:55:10;;;;;;;16.45;11.75;;;;;;;5.62;76.79;98027.09;5052457;28;20052;-62
2021/12/04 06:57:40;;;;;;;17.15;11.95;;;;;;;5.63;77.02;98020.09;5050713;28;20055;-62
2021/12/04 07:00:10;;;;;;;15.38;11.45;;;;;;;5.65;76.91;98031.28;5051800;28;20478;-68
2021/12/04 07:02:37;;;;;;;13.77;10.68;;;;;;;5.66;77.24;98033.81;5052178;28;20099;-62
2021/12/04 07:05:05;;;;;;;15.73;11.95;;;;;;;5.69;77.00;98033.56;5051024;28;20060;-63
2021/12/04 07:07:31;;;;;;;16.02;12.75;;;;;;;5.72;77.04;98022.94;5051897;28;20477;-61
2021/12/04 07:09:58;;;;;;;14.98;12.05;;;;;;;5.77;77.08;98029.66;5051634;28;20049;-61
2021/12/04 07:12:25;;;;;;;13.57;10.85;;;;;;;5.79;77.14;98022.56;5051644;28;20059;-61
2021/12/04 07:14:52;;;;;;;17.13;12.10;;;;;;;5.81;77.16;98024.13;5050267;28;20708;-61
2021/12/04 07:17:18;;;;;;;18.15;11.80;;;;;;;5.84;76.96;98016.06;5051661;28;20056;-62
2021/12/04 07:19:45;;;;;;;15.32;11.10;;;;;;;5.87;76.62;98018.50;5051289;28;20044;-61
2021/12/04 07:22:12;;;;;;;17.60;11.77;;;;;;;5.90;76.70;98019.25;5051378;28;20056;-61
2021/12/04 07:24:39;;;;;;;17.52;11.90;;;;;;;5.90;76.78;98014.84;5051398;28;20477;-61
2021/12/04 07:27:06;;;;;;;15.93;11.23;;;;;;;5.90;76.34;98009.63;5051495;28;20049;-62
2021/12/04 07:29:33;;;;;;;17.05;11.13;;;;;;;5.90;76.35;98014.03;5050158;28;20056;-64
2021/12/04 07:31:59;;;;;;;14.80;11.18;;;;;;;5.89;76.38;97999.28;5051510;28;20056;-61
2021/12/04 07:34:26;;;;;;;12.65;10.55;;;;;;;5.87;76.12;97994.19;5051543;28;20049;-62
2021/12/04 07:36:53;;;;;;;13.18;10.00;;;;;;;5.88;76.37;97995.84;5051120;28;20045;-60
2021/12/04 07:39:19;;;;;;;10.63;9.27;;;;;;;5.90;76.65;97998.34;5051169;28;20060;-61
2021/12/04 07:41:46;;;;;;;12.13;10.02;;;;;;;5.92;76.87;98007.75;5051348;28;20079;-61
2021/12/04 07:44:13;;;;;;;12.10;9.55;;;;;;;5.94;76.81;98007.66;5051305;28;20049;-61
2021/12/04 07:46:40;;;;;;;13.40;10.43;;;;;;;5.96;76.70;98003.16;5051300;28;20532;-62
2021/12/04 07:49:08;;;;;;;12.07;9.55;;;;;;;5.99;76.58;98006.41;5049515;28;20485;-61
2021/12/04 07:51:34;;;;;;;12.85;9.65;;;;;;;6.02;76.61;98007.97;5050928;28;20048;-61
2021/12/04 07:54:01;;;;;;;11.52;9.50;;;;;;;6.05;76.63;98013.03;5050926;28;20057;-61
2021/12/04 07:56:28;;;;;;;12.52;9.07;;;;;;;6.07;76.43;98007.69;5051350;28;20064;-61
2021/12/04 07:58:55;;;;;;;12.73;9.70;;;;;;;6.09;76.49;98006.66;5050676;28;20044;-61
2021/12/04 08:01:22;;;;;;;11.93;9.40;;;;;;;6.09;76.21;98001.44;5050996;28;20057;-64
2021/12/04 08:03:49;;;;;;;13.68;10.27;;;;;;;6.10;76.42;98005.72;5049781;28;20048;-61
2021/12/04 08:06:16;;;;;;;11.98;9.48;;;;;;;6.12;76.28;98005.59;5050857;28;20060;-62
2021/12/04 08:08:43;;;;;;;10.85;9.07;;;;;;;6.12;76.26;97997.78;5049471;28;20068;-61
2021/12/04 08:11:09;;;;;;;11.50;9.73;;;;;;;6.12;76.25;97998.63;5050882;28;20060;-63
2021/12/04 08:13:36;;;;;;;11.52;9.48;;;;;;;6.14;76.33;97995.91;5050469;28;20044;-63
2021/12/04 08:16:03;;;;;;;11.43;9.57;;;;;;;6.14;75.99;98006.34;5050919;28;20057;-62
2021/12/04 08:18:30;;;;;;;10.77;9.00;;;;;;;6.13;76.24;97995.06;5050483;28;20485;-61
2021/12/04 08:20:58;;;;;;;11.65;8.68;;;;;;;6.15;76.51;98001.94;5050344;28;20053;-62
2021/12/04 08:23:25;;;;;;;11.57;9.18;;;;;;;6.15;76.38;98012.41;5050622;28;20049;-61
2021/12/04 08:25:51;;;;;;;12.52;8.88;;;;;;;6.16;76.49;98011.50;5051039;28;20087;-61
2021/12/04 08:28:18;;;;;;;12.57;8.80;;;;;;;6.16;76.52;98012.31;5050668;28;20060;-65
2021/12/04 08:30:44;;;;;;;10.23;8.30;;;;;;;6.18;76.37;98006.97;5050316;28;20063;-61
2021/12/04 08:33:12;;;;;;;11.73;7.93;;;;;;;6.19;76.70;97999.03;5050351;28;20456;-60
2021/12/04 08:35:40;;;;;;;11.05;8.30;;;;;;;6.21;76.73;97998.94;5049366;28;20049;-61
2021/12/04 08:38:12;;;;;;;9.80;7.45;;;;;;;6.22;76.35;98003.22;5049305;28;20067;-62
2021/12/04 08:40:40;;;;;;;8.77;7.47;;;;;;;6.27;76.46;98002.94;5050186;28;20107;-62
2021/12/04 08:43:08;;;;;;;9.95;8.57;;;;;;;6.28;76.58;97997.56;5049047;28;20053;-62
2021/12/04 08:45:35;;;;;;;10.93;7.00;;;;;;;6.31;76.23;97986.91;5049324;28;20059;-61
2021/12/04 08:48:03;;;;;;;11.32;8.13;;;;;;;6.32;76.27;97985.97;5050320;28;20049;-62
2021/12/04 08:50:31;;;;;;;10.35;7.78;;;;;;;6.34;76.36;97980.66;5048746;28;20489;-62
2021/12/04 08:52:59;;;;;;;8.30;7.18;;;;;;;6.35;76.23;97980.53;5050433;28;20053;-61
2021/12/04 08:55:28;;;;;;;9.65;7.32;;;;;;;6.37;76.42;97976.06;5050279;28;20056;-61
2021/12/04 08:57:55;;;;;;;8.82;7.68;;;;;;;6.41;76.31;97988.91;5049112;28;20056;-70
2021/12/04 09:00:26;;;;;;;8.88;7.03;;;;;;;6.41;76.03;97987.13;5048577;28;20052;-61
2021/12/04 09:02:54;;;;;;;10.25;7.07;;;;;;;6.44;76.34;97993.94;5050557;28;20133;-61
2021/12/04 09:05:22;;;;;;;11.82;7.03;;;;;;;6.46;76.19;97992.03;5049074;28;20052;-62
2021/12/04 09:07:50;;;;;;;9.55;7.03;;;;;;;6.48;76.00;97987.53;5050358;28;20060;-63
2021/12/04 09:10:18;;;;;;;8.77;6.70;;;;;;;6.51;76.28;97992.56;5051260;28;20495;-61
2021/12/04 09:12:45;;;;;;;12.55;7.13;;;;;;;6.54;76.29;97991.53;5054121;28;20061;-61
2021/12/04 09:15:16;;;;;;;10.10;7.13;;;;;;;6.56;76.39;97987.84;5052771;28;20041;-61
2021/12/04 09:17:43;;;;;;;10.05;7.35;;;;;;;6.61;76.37;97992.75;5053037;28;20041;-61
2021/12/04 09:20:15;;;;;;;7.85;7.03;;;;;;;6.64;76.19;97992.53;5053641;28;20405;-62
2021/12/04 09:22:43;;;;;;;9.40;7.47;;;;;;;6.66;76.08;97990.69;5053846;28;20061;-61
2021/12/04 09:25:15;;;;;;;8.02;6.53;;;;;;;6.69;75.81;97992.25;5053705;28;20053;-62
2021/12/04 10:02:04;;;;;;;10.05;7.85;;;;;;;6.95;75.87;97973.88;5052810;28;20441;-62
2021/12/04 10:04:17;;;;;;;8.68;7.78;;;;;;;6.96;75.79;97965.09;5052393;28;20140;-61
2021/12/04 10:34:30;;;;;;;10.68;7.35;;;;;;;7.05;75.43;97904.25;5042314;28;20106;-64
2021/12/04 10:37:09;;;;;;;9.17;8.27;;;;;;;7.04;74.77;97898.16;5052639;28;20416;-63
2021/12/04 10:39:36;;;;;;;10.43;7.72;;;;;;;7.10;75.59;97896.09;5050980;28;20307;-62
2021/12/04 10:42:10;;;;;;;8.85;7.97;;;;;;;7.12;75.54;97905.47;5052492;28;20045;-63
2021/12/04 10:44:44;;;;;;;11.55;8.25;;;;;;;7.12;75.40;97889.78;5052399;28;20053;-61
2021/12/04 10:47:12;;;;;;;10.20;8.57;;;;;;;7.15;75.92;97878.25;5051243;28;20056;-63
2021/12/04 10:52:31;;;;;;;9.05;8.02;;;;;;;7.19;75.63;97856.16;5052246;28;20416;-62
2021/12/04 10:55:13;;;;;;;13.02;8.35;;;;;;;7.21;75.21;97862.09;5052110;28;20049;-62
2021/12/04 11:06:15;;;;;;;10.02;8.05;;;;;;;7.38;76.35;97842.53;5052221;28;20048;-61
2021/12/04 11:20:10;;;;;;;11.55;8.73;;;;;;;7.61;75.67;97823.41;5051596;28;20409;-61
2021/12/04 11:38:34;;;;;;;9.98;8.50;;;;;;;7.90;75.91;97818.56;5051456;28;20111;-62
2021/12/04 11:41:15;;;;;;;10.43;8.02;;;;;;;7.92;75.96;97816.66;5049624;28;20041;-62
2021/12/04 11:46:22;;;;;;;10.48;8.50;;;;;;;7.94;74.98;97808.69;5051310;28;20045;-63
2021/12/04 11:48:49;;;;;;;9.02;7.72;;;;;;;7.94;75.54;97798.19;5049784;28;20045;-64
2021/12/04 11:51:22;;;;;;;9.35;8.35;;;;;;;7.92;75.04;97795.69;5050894;28;20504;-62
2021/12/04 11:53:50;;;;;;;;;;;;;;;7.94;73.95;97793.81;5050111;28;20782;-63
2021/12/04 11:56:30;;;;;;;9.13;7.22;;;;;;;7.94;74.23;97785.94;5051042;28;19931;-61
2021/12/04 11:58:56;;;;;;;8.75;7.85;;;;;;;7.96;74.97;97770.09;5051135;28;20052;-62
2021/12/04 12:01:32;;;;;;;9.77;8.20;;;;;;;7.93;75.02;97771.16;5050974;28;20048;-62
2021/12/04 12:04:10;;;;;;;10.73;7.82;;;;;;;7.91;74.81;97753.91;5051233;28;20053;-61
2021/12/04 12:06:40;;;;;;;11.27;8.30;;;;;;;7.94;75.56;97751.88;5050884;28;20075;-62
2021/12/04 12:09:07;;;;;;;10.02;8.40;;;;;;;7.95;75.53;97745.69;5049228;28;20051;-62
2021/12/04 12:11:35;;;;;;;10.88;8.90;;;;;;;7.97;75.25;97739.50;5050651;28;20486;-61
2021/12/04 12:14:11;;;;;;;9.85;8.68;;;;;;;7.98;75.21;97733.28;5049334;28;20485;-61
2021/12/04 12:16:47;;;;;;;11.35;8.75;;;;;;;7.97;74.33;97736.88;5049885;28;20132;-62
2021/12/04 12:19:51;;;;;;;11.82;9.32;;;;;;;7.97;73.98;97729.84;5048303;28;20045;-61
2021/12/04 12:22:30;;;;;;;11.02;9.07;;;;;;;8.00;74.54;97721.72;5033563;28;20045;-62
2021/12/04 12:25:29;;;;;;;11.10;8.57;;;;;;;8.00;74.35;97721.72;5049258;28;20064;-64
2021/12/04 12:34:03;;;;;;;10.63;9.52;;;;;;;8.08;75.40;97721.13;5050500;28;20511;-61
2021/12/04 12:36:32;;;;;;;12.75;9.45;;;;;;;8.08;75.35;97715.91;5050356;28;20409;-61
2021/12/04 12:39:08;;;;;;;10.50;8.98;;;;;;;8.07;74.55;97709.81;5050425;28;20099;-62
2021/12/04 12:41:38;;;;;;;10.45;9.10;;;;;;;8.11;75.02;97725.31;5050285;28;20489;-61
2021/12/04 12:44:25;;;;;;;10.63;9.23;;;;;;;8.12;75.33;97712.09;5049387;28;20052;-62
2021/12/04 12:46:56;;;;;;;10.95;9.00;;;;;;;8.15;75.33;97711.00;5054983;28;20049;-62
2021/12/04 12:49:28;;;;;;;12.52;9.15;;;;;;;8.15;75.18;97709.19;5054435;28;20143;-61
2021/12/04 12:52:06;;;;;;;11.68;10.25;;;;;;;8.15;74.52;97703.94;5053304;28;20056;-62
2021/12/04 12:54:56;;;;;;;10.55;9.25;;;;;;;8.15;74.12;97696.09;5054519;28;20512;-62
2021/12/04 12:57:28;;;;;;;11.40;9.70;;;;;;;8.20;74.50;97700.97;5054538;28;20059;-63
2021/12/04 13:14:15;;;;;;;13.82;10.80;;;;;;;8.15;73.42;97658.59;5054201;28;20452;-63
2021/12/04 13:16:46;;;;;;;15.40;11.13;;;;;;;8.14;73.80;97668.22;5053933;28;20107;-63
2021/12/04 13:19:16;;;;;;;13.50;10.05;;;;;;;8.11;74.23;97665.84;5053674;28;20444;-62
2021/12/04 13:21:45;;;;;;;12.38;10.60;;;;;;;8.07;74.00;97662.66;5053825;28;20060;-63
2021/12/04 13:24:16;;;;;;;13.68;10.10;;;;;;;8.04;73.88;97662.88;5052831;28;20398;-62
2021/12/04 13:26:46;;;;;;;11.93;9.88;;;;;;;8.03;74.12;97658.59;5052770;28;20057;-63
2021/12/04 13:29:17;;;;;;;13.63;10.13;;;;;;;8.02;74.25;97658.72;5053633;28;20150;-62
2021/12/04 13:31:43;;;;;;;12.65;9.65;;;;;;;8.02;74.51;97656.09;5054256;28;20056;-62
2021/12/04 13:34:13;;;;;;;11.20;9.65;;;;;;;8.01;74.93;97655.28;5054205;28;20807;-62
2021/12/04 13:36:45;;;;;;;14.98;10.23;;;;;;;8.03;74.61;97663.00;5053816;28;20200;-63
2021/12/04 13:39:14;;;;;;;12.02;9.52;;;;;;;8.04;75.06;97667.31;5052372;28;20083;-61
2021/12/04 13:41:43;;;;;;;13.05;9.23;;;;;;;8.04;74.68;97662.06;5053342;28;20489;-64
2021/12/04 13:44:14;;;;;;;11.48;8.95;;;;;;;8.04;74.24;97665.50;5052595;28;20056;-62
2021/12/04 13:46:50;;;;;;;11.38;8.85;;;;;;;8.05;74.08;97656.72;5052407;28;20052;-62
2021/12/04 13:49:22;;;;;;;9.90;8.27;;;;;;;8.05;73.88;97658.50;5053167;28;20045;-64
2021/12/04 13:51:54;;;;;;;10.93;8.65;;;;;;;8.06;73.96;97657.53;5053470;28;20568;-64
2021/12/04 13:54:25;;;;;;;9.70;8.38;;;;;;;8.06;73.96;97649.66;5052009;28;20053;-63
2021/12/04 13:56:52;;;;;;;11.73;8.48;;;;;;;8.05;73.96;97643.63;5052943;28;20049;-62
2021/12/04 13:59:24;;;;;;;10.93;8.55;;;;;;;8.01;73.42;97643.97;5051841;28;20136;-61
2021/12/04 14:01:52;;;;;;;9.40;7.97;;;;;;;8.00;73.67;97640.50;5053279;28;20045;-63
2021/12/04 14:04:20;;;;;;;12.07;8.68;;;;;;;7.98;74.01;97636.34;5052106;28;20048;-63
2021/12/04 14:06:51;;;;;;;11.98;8.90;;;;;;;7.91;73.44;97636.00;5051536;28;20059;-62
2021/12/04 14:09:19;;;;;;;11.85;9.18;;;;;;;7.90;74.13;97640.44;5052650;28;20057;-62
2021/12/04 14:11:53;;;;;;;15.52;9.63;;;;;;;7.88;74.19;97637.09;5053192;28;20045;-62
2021/12/04 14:14:26;;;;;;;10.98;8.43;;;;;;;7.83;73.55;97644.50;5052948;28;20068;-63
2021/12/04 14:16:54;;;;;;;11.95;8.82;;;;;;;7.83;73.90;97654.97;5051674;28;20056;-62
2021/12/04 14:19:25;;;;;;;9.50;8.02;;;;;;;7.82;74.28;97642.84;5051406;28;20053;-62
2021/12/04 14:21:54;;;;;;;14.60;8.93;;;;;;;7.79;73.66;97635.22;5051580;28;20067;-64
2021/12/04 14:24:30;;;;;;;11.00;8.27;;;;;;;7.77;73.31;97624.00;5051665;28;20044;-63
2021/12/04 14:26:59;;;;;;;11.95;9.00;;;;;;;7.77;73.71;97618.78;5052933;28;20045;-61
2021/12/04 14:29:34;;;;;;;10.07;8.63;;;;;;;7.74;73.69;97605.94;5052373;28;20076;-63
2021/12/04 14:32:03;;;;;;;10.65;8.85;;;;;;;7.74;73.67;97608.56;5052853;28;20056;-62
2021/12/04 14:34:31;;;;;;;10.50;8.93;;;;;;;7.71;73.73;97614.03;5051551;28;20128;-61
2021/12/04 14:37:04;;;;;;;11.00;8.63;;;;;;;7.65;73.72;97618.81;5052421;28;20501;-63
2021/12/04 14:39:31;;;;;;;;;;;;;;;7.63;73.08;97623.34;5051558;28;20060;-63
2021/12/04 14:41:58;;;;;;;11.98;9.10;;;;;;;7.63;73.84;97623.34;5050901;28;19925;-62
2021/12/04 14:44:25;;;;;;;12.32;9.65;;;;;;;7.57;74.08;97623.84;5052897;28;20056;-62
2021/12/04 14:46:53;;;;;;;12.77;10.43;;;;;;;7.52;74.07;97636.47;5052204;28;20076;-62